Time;durP1;ratioP1;P1;durP2;ratioP2;P2;SDS_P1;SDS_P2;PMS_P1;PMS_P2;Temp;Humidity;BMP_temperature;BMP_pressure;BME280_temperature;BME280_humidity;BME280_pressure;Samples;Min_cycle;Max_cycle;Signal;HPM_P1;HPM_P2
2023/03/17 00:00:09;;;;;;;3.78;1.83;;;9.80;73.60;;;;;;5116109;28;20031;-74
2023/03/17 00:02:36;;;;;;;6.53;2.05;;;9.80;73.50;;;;;;5116408;28;20020;-74
2023/03/17 00:05:09;;;;;;;3.75;2.03;;;9.80;73.20;;;;;;5116348;28;20085;-74
2023/03/17 00:07:34;;;;;;;3.67;1.77;;;9.80;73.30;;;;;;5116393;28;20023;-74
2023/03/17 00:10:00;;;;;;;2.78;2.10;;;9.80;73.00;;;;;;5116170;28;20027;-74
2023/03/17 00:12:26;;;;;;;3.25;1.85;;;9.90;73.20;;;;;;5115205;28;20028;-74
2023/03/17 00:14:52;;;;;;;3.92;2.10;;;9.90;72.90;;;;;;5116148;28;20057;-74
2023/03/17 00:17:18;;;;;;;4.40;2.10;;;10.00;72.20;;;;;;5116119;28;20391;-74
2023/03/17 00:19:44;;;;;;;2.95;1.90;;;10.00;72.40;;;;;;5115977;28;20016;-74
2023/03/17 00:22:16;;;;;;;3.25;1.73;;;10.00;72.20;;;;;;5116001;28;20043;-74
2023/03/17 00:24:42;;;;;;;;;;;10.10;72.30;;;;;;5116482;28;20021;-74
2023/03/17 00:27:12;;;;;;;3.03;1.48;;;10.00;71.70;;;;;;5115926;28;19911;-74
2023/03/17 00:29:39;;;;;;;3.95;1.80;;;10.00;71.80;;;;;;5115861;28;20032;-74
2023/03/17 00:32:16;;;;;;;3.92;1.80;;;10.00;71.60;;;;;;5115918;28;20024;-74
2023/03/17 00:34:42;;;;;;;4.43;1.90;;;10.00;71.60;;;;;;5115813;28;20035;-74
2023/03/17 00:37:11;;;;;;;4.20;2.17;;;9.90;72.00;;;;;;5114878;28;20063;-74
2023/03/17 00:39:38;;;;;;;2.90;1.60;;;9.80;73.00;;;;;;5115635;28;20028;-74
2023/03/17 00:42:07;;;;;;;3.20;1.80;;;9.80;72.20;;;;;;5115623;28;20038;-74
2023/03/17 00:44:34;;;;;;;3.25;1.63;;;9.80;72.00;;;;;;5114815;28;20516;-74
2023/03/17 00:47:00;;;;;;;5.28;1.85;;;9.80;72.10;;;;;;5115564;28;20387;-74
2023/03/17 00:49:26;;;;;;;4.68;1.58;;;9.80;72.10;;;;;;5115510;28;20024;-74
2023/03/17 00:51:53;;;;;;;3.35;1.77;;;9.80;72.10;;;;;;5114244;28;20053;-74
2023/03/17 00:54:20;;;;;;;4.32;1.92;;;9.70;72.20;;;;;;5114516;28;20115;-75
2023/03/17 00:56:48;;;;;;;3.70;1.80;;;9.70;72.20;;;;;;5115349;28;20032;-74
2023/03/17 00:59:23;;;;;;;3.30;1.83;;;9.60;72.30;;;;;;5114162;28;20115;-74
2023/03/17 01:01:48;;;;;;;2.55;1.70;;;9.60;72.50;;;;;;5115320;28;20020;-74
2023/03/17 01:04:14;;;;;;;3.70;1.80;;;9.70;72.60;;;;;;5115189;28;20024;-74
2023/03/17 01:06:40;;;;;;;3.10;1.48;;;9.70;72.20;;;;;;5097290;28;20049;-74
2023/03/17 01:09:07;;;;;;;9.70;1.63;;;9.70;72.30;;;;;;5113911;28;20083;-74
2023/03/17 01:11:32;;;;;;;4.43;1.83;;;9.70;72.10;;;;;;5115049;28;20107;-74
2023/03/17 01:13:58;;;;;;;1.73;1.40;;;9.60;72.20;;;;;;5113964;28;20024;-74
2023/03/17 01:16:23;;;;;;;2.90;1.67;;;9.60;72.60;;;;;;5114004;28;20090;-74
2023/03/17 01:18:49;;;;;;;3.17;1.80;;;9.60;73.10;;;;;;5114935;28;20024;-74
2023/03/17 01:21:15;;;;;;;3.75;1.83;;;9.50;73.20;;;;;;5114037;28;20039;-74
2023/03/17 01:23:41;;;;;;;3.92;1.73;;;9.50;73.30;;;;;;5114835;28;20050;-74
2023/03/17 01:26:07;;;;;;;3.28;1.83;;;9.50;73.00;;;;;;5113749;28;20031;-74
2023/03/17 01:28:32;;;;;;;4.60;1.60;;;9.50;72.60;;;;;;5114734;28;20024;-74
2023/03/17 01:30:59;;;;;;;3.65;1.92;;;9.50;72.40;;;;;;5114647;28;20024;-74
2023/03/17 01:33:25;;;;;;;2.78;1.63;;;9.50;72.40;;;;;;5113634;28;20028;-74
2023/03/17 01:35:51;;;;;;;2.45;1.63;;;9.60;72.10;;;;;;5113625;28;20049;-74
2023/03/17 01:38:17;;;;;;;5.05;1.80;;;9.50;72.10;;;;;;5114542;28;20024;-73
2023/03/17 01:40:49;;;;;;;4.30;2.15;;;9.50;72.40;;;;;;5114431;28;20028;-74
2023/03/17 01:43:18;;;;;;;6.13;1.90;;;9.50;72.90;;;;;;5114508;28;20026;-74
2023/03/17 01:46:15;;;;;;;4.63;2.03;;;9.50;73.10;;;;;;5114376;28;20016;-74
2023/03/17 01:49:04;;;;;;;3.00;1.90;;;9.40;73.20;;;;;;5114498;28;20031;-74
2023/03/17 01:51:48;;;;;;;3.72;2.13;;;9.40;73.20;;;;;;5100526;28;20043;-74
2023/03/17 01:54:47;;;;;;;3.75;1.70;;;9.40;73.40;;;;;;5113922;28;20048;-74
2023/03/17 01:57:17;;;;;;;4.15;1.95;;;9.40;73.50;;;;;;5114375;28;20026;-74
2023/03/17 01:59:48;;;;;;;2.13;1.58;;;9.30;73.40;;;;;;5114064;28;20039;-74
2023/03/17 02:02:19;;;;;;;3.85;2.10;;;9.30;73.40;;;;;;5114174;28;20049;-74
2023/03/17 02:04:45;;;;;;;5.57;1.90;;;9.30;73.70;;;;;;5114098;28;20069;-74
2023/03/17 02:07:11;;;;;;;3.60;1.80;;;9.30;73.90;;;;;;5113012;28;20028;-74
2023/03/17 02:09:37;;;;;;;3.22;2.00;;;9.30;73.90;;;;;;5112900;28;20046;-74
2023/03/17 02:12:04;;;;;;;3.63;1.80;;;9.20;74.10;;;;;;5113971;28;20024;-74
2023/03/17 02:14:29;;;;;;;2.70;1.77;;;9.20;74.00;;;;;;5112873;28;20035;-74
2023/03/17 02:16:55;;;;;;;3.50;1.83;;;9.20;73.80;;;;;;5113873;28;20048;-74
2023/03/17 02:19:21;;;;;;;2.92;1.75;;;9.20;73.80;;;;;;5113781;28;20040;-74
2023/03/17 02:21:50;;;;;;;4.57;2.28;;;9.20;74.00;;;;;;5112353;28;20079;-74
2023/03/17 02:24:36;;;;;;;5.00;2.13;;;9.10;74.00;;;;;;5113756;28;20026;-74
2023/03/17 02:27:22;;;;;;;2.97;1.77;;;9.10;74.10;;;;;;5113783;28;20031;-74
2023/03/17 02:29:49;;;;;;;3.47;2.03;;;9.10;73.90;;;;;;5099992;28;20035;-74
2023/03/17 02:32:17;;;;;;;2.90;1.90;;;9.10;73.60;;;;;;5112630;28;20024;-74
2023/03/17 02:34:43;;;;;;;2.90;1.90;;;9.10;73.60;;;;;;5113621;28;20024;-75
2023/03/17 02:37:09;;;;;;;4.88;1.42;;;9.00;73.70;;;;;;5113600;28;20084;-75
2023/03/17 02:39:36;;;;;;;4.18;1.70;;;9.00;74.10;;;;;;5113510;28;20033;-75
2023/03/17 02:42:03;;;;;;;3.28;1.95;;;9.00;74.40;;;;;;5113563;28;20020;-75
2023/03/17 02:44:29;;;;;;;5.45;2.00;;;9.00;74.60;;;;;;5112491;28;20020;-75
2023/03/17 02:46:55;;;;;;;2.78;1.70;;;9.00;74.70;;;;;;5113566;28;20091;-74
2023/03/17 02:49:21;;;;;;;4.20;1.70;;;9.00;74.50;;;;;;5095769;28;20020;-74
2023/03/17 02:51:47;;;;;;;3.75;1.90;;;9.00;74.80;;;;;;5113474;28;20028;-74
2023/03/17 02:54:12;;;;;;;3.13;1.67;;;9.10;74.80;;;;;;5113312;28;20048;-74
2023/03/17 02:56:38;;;;;;;2.55;1.60;;;9.00;74.90;;;;;;5113414;28;20028;-74
2023/03/17 02:59:05;;;;;;;4.00;1.70;;;9.00;75.00;;;;;;5113429;28;20020;-74
2023/03/17 03:01:30;;;;;;;2.65;1.60;;;9.00;74.80;;;;;;5095564;28;20024;-74
2023/03/17 03:03:57;;;;;;;2.33;1.67;;;9.00;74.90;;;;;;5113350;28;20024;-74
2023/03/17 03:06:23;;;;;;;3.75;1.85;;;9.00;75.10;;;;;;5113337;28;20028;-74
2023/03/17 03:08:49;;;;;;;4.28;1.80;;;9.00;75.10;;;;;;5113264;28;20026;-74
2023/03/17 03:11:15;;;;;;;3.90;1.60;;;8.90;74.80;;;;;;5113293;28;20020;-74
2023/03/17 03:13:41;;;;;;;3.75;1.80;;;9.00;75.10;;;;;;5113266;28;20104;-74
2023/03/17 03:16:08;;;;;;;3.83;1.77;;;9.00;75.40;;;;;;5113243;28;20543;-74
2023/03/17 03:18:34;;;;;;;2.58;1.75;;;9.00;75.30;;;;;;5113219;28;20024;-74
2023/03/17 03:21:00;;;;;;;3.78;2.33;;;9.00;75.20;;;;;;5112261;28;20046;-74
2023/03/17 03:23:26;;;;;;;4.28;1.77;;;8.90;75.30;;;;;;5113212;28;20020;-74
2023/03/17 03:25:52;;;;;;;2.95;1.90;;;8.90;75.10;;;;;;5113175;28;20043;-73
2023/03/17 03:28:18;;;;;;;2.58;1.55;;;8.90;75.30;;;;;;5112343;28;20031;-73
2023/03/17 03:30:44;;;;;;;4.65;1.83;;;9.00;75.00;;;;;;5113078;28;20107;-74
2023/03/17 03:33:11;;;;;;;4.45;1.80;;;9.00;74.90;;;;;;5112569;28;20032;-74
2023/03/17 03:35:38;;;;;;;4.93;1.75;;;9.00;74.90;;;;;;5115944;28;20148;-74
2023/03/17 03:38:04;;;;;;;4.65;1.80;;;9.00;75.00;;;;;;5116914;28;20448;-74
2023/03/17 03:40:30;;;;;;;4.35;2.00;;;9.00;75.10;;;;;;5116774;28;20062;-74
2023/03/17 03:42:56;;;;;;;5.03;2.00;;;9.00;75.10;;;;;;5116761;28;20028;-74
2023/03/17 03:45:22;;;;;;;6.32;2.20;;;9.00;75.10;;;;;;5115875;28;20024;-74
2023/03/17 03:47:47;;;;;;;5.05;2.13;;;9.00;75.20;;;;;;5116701;28;20097;-74
2023/03/17 03:50:13;;;;;;;4.15;2.00;;;9.10;75.20;;;;;;5098659;28;20063;-74
2023/03/17 03:52:39;;;;;;;3.63;1.65;;;9.00;75.20;;;;;;5115416;28;20048;-74
2023/03/17 03:55:05;;;;;;;3.03;1.75;;;9.00;75.30;;;;;;5116613;28;20025;-74
2023/03/17 03:57:31;;;;;;;3.33;2.03;;;9.00;75.30;;;;;;5116543;28;20032;-74
2023/03/17 03:59:56;;;;;;;3.33;2.30;;;9.00;75.30;;;;;;5116407;28;20080;-74
2023/03/17 04:02:22;;;;;;;3.42;2.25;;;9.00;75.40;;;;;;5116434;28;20048;-74
2023/03/17 04:04:48;;;;;;;4.57;1.95;;;8.90;75.30;;;;;;5116393;28;20046;-74
2023/03/17 04:07:14;;;;;;;3.55;2.20;;;8.90;75.20;;;;;;5116337;28;20028;-74
2023/03/17 04:09:40;;;;;;;4.88;2.72;;;9.00;75.40;;;;;;5115302;28;20047;-75
2023/03/17 04:12:07;;;;;;;4.07;2.35;;;8.90;75.30;;;;;;5116236;28;20052;-75
2023/03/17 04:14:33;;;;;;;5.22;2.58;;;9.00;75.30;;;;;;5115243;28;20055;-74
2023/03/17 04:16:58;;;;;;;4.97;2.30;;;8.90;75.30;;;;;;5115303;28;20031;-74
2023/03/17 04:19:24;;;;;;;5.40;2.15;;;8.90;75.30;;;;;;5116014;28;20028;-74
2023/03/17 04:21:50;;;;;;;3.47;1.92;;;8.90;75.30;;;;;;5116051;28;20035;-74
2023/03/17 04:24:16;;;;;;;3.13;1.90;;;8.80;75.30;;;;;;5116142;28;20020;-74
2023/03/17 04:26:41;;;;;;;4.72;2.30;;;8.80;75.50;;;;;;5114986;28;20035;-74
2023/03/17 04:29:09;;;;;;;3.72;2.30;;;8.70;75.40;;;;;;5115951;28;20028;-74
2023/03/17 04:31:35;;;;;;;4.10;2.22;;;8.70;75.60;;;;;;5116000;28;20036;-74
2023/03/17 04:34:01;;;;;;;3.95;2.00;;;8.70;75.90;;;;;;5115853;28;20032;-74
2023/03/17 04:36:27;;;;;;;6.75;3.10;;;8.80;76.00;;;;;;5115750;28;20039;-74
2023/03/17 04:38:53;;;;;;;3.72;2.40;;;8.80;75.60;;;;;;5115704;28;20029;-74
2023/03/17 04:41:19;;;;;;;4.78;2.63;;;8.80;75.60;;;;;;5115616;28;20115;-74
2023/03/17 04:43:45;;;;;;;4.72;2.50;;;8.90;75.50;;;;;;5115309;28;20016;-74
2023/03/17 04:46:11;;;;;;;3.53;2.28;;;8.90;75.40;;;;;;5097554;28;20024;-74
2023/03/17 04:48:36;;;;;;;7.28;2.90;;;8.80;76.30;;;;;;5115518;28;20024;-74
2023/03/17 04:51:02;;;;;;;4.90;2.42;;;8.80;75.50;;;;;;5115497;28;20058;-74
2023/03/17 04:53:29;;;;;;;5.63;2.35;;;8.80;75.60;;;;;;5097662;28;20056;-74
2023/03/17 04:55:55;;;;;;;6.00;2.25;;;8.80;75.70;;;;;;5115371;28;20032;-74
2023/03/17 04:58:21;;;;;;;5.32;2.80;;;8.80;76.00;;;;;;5115333;28;20024;-74
2023/03/17 05:00:47;;;;;;;12.90;3.00;;;8.80;76.00;;;;;;5115252;28;20058;-74
2023/03/17 05:03:12;;;;;;;4.43;2.38;;;8.80;75.90;;;;;;5115382;28;20032;-74
2023/03/17 05:05:38;;;;;;;4.53;2.55;;;8.80;75.90;;;;;;5115197;28;20035;-74
2023/03/17 05:08:04;;;;;;;4.65;2.38;;;8.90;75.90;;;;;;5114266;28;20031;-74
2023/03/17 05:10:30;;;;;;;7.00;2.80;;;8.80;76.00;;;;;;5114175;28;20024;-74
2023/03/17 05:12:55;;;;;;;5.25;2.30;;;8.80;76.00;;;;;;5115059;28;20039;-74
2023/03/17 05:15:21;;;;;;;5.35;2.30;;;8.70;76.10;;;;;;5114100;28;20087;-74
2023/03/17 05:17:47;;;;;;;3.80;2.03;;;8.70;76.30;;;;;;5114959;28;20049;-75
2023/03/17 05:20:12;;;;;;;5.20;2.78;;;8.70;76.10;;;;;;5114841;28;20115;-74
2023/03/17 05:22:38;;;;;;;3.90;2.30;;;8.80;76.10;;;;;;5114872;28;20024;-74
2023/03/17 05:25:05;;;;;;;4.75;2.50;;;8.80;76.40;;;;;;5114805;28;20606;-74
2023/03/17 05:27:31;;;;;;;5.32;3.00;;;8.80;76.30;;;;;;5114802;28;20013;-74
2023/03/17 05:29:57;;;;;;;7.57;3.10;;;8.80;76.30;;;;;;5114718;28;20031;-74
2023/03/17 05:32:23;;;;;;;6.10;3.13;;;8.80;76.60;;;;;;5114702;28;20040;-74
2023/03/17 05:34:49;;;;;;;6.15;2.58;;;8.80;76.80;;;;;;5113878;28;20036;-74
2023/03/17 05:37:15;;;;;;;4.32;2.22;;;8.70;77.00;;;;;;5113699;28;20052;-74
2023/03/17 05:39:41;;;;;;;4.15;2.25;;;8.70;77.00;;;;;;5114431;28;20023;-74
2023/03/17 05:42:07;;;;;;;7.65;3.00;;;8.80;77.00;;;;;;5114468;28;20089;-74
2023/03/17 05:44:33;;;;;;;5.70;2.58;;;8.80;77.10;;;;;;5114525;28;20025;-74
2023/03/17 05:46:59;;;;;;;4.05;2.78;;;8.80;77.00;;;;;;5114425;28;20028;-74
2023/03/17 05:49:27;;;;;;;5.78;2.67;;;8.80;76.90;;;;;;5114373;28;20054;-74
2023/03/17 05:51:54;;;;;;;4.97;2.85;;;8.80;77.00;;;;;;5113254;28;20028;-74
2023/03/17 05:54:20;;;;;;;4.55;2.58;;;8.80;76.80;;;;;;5114126;28;20040;-74
2023/03/17 05:56:46;;;;;;;7.68;3.50;;;8.80;76.80;;;;;;5113378;28;20069;-74
2023/03/17 05:59:14;;;;;;;5.78;2.90;;;8.80;77.10;;;;;;5114096;28;20089;-74
2023/03/17 06:01:40;;;;;;;5.47;2.85;;;8.70;77.20;;;;;;5114141;28;20115;-74
2023/03/17 06:04:06;;;;;;;4.90;2.42;;;8.80;77.30;;;;;;5113143;28;20020;-74
2023/03/17 06:06:32;;;;;;;5.20;3.03;;;8.80;77.10;;;;;;5113035;28;20012;-74
2023/03/17 06:08:58;;;;;;;8.13;3.45;;;8.80;77.30;;;;;;5113984;28;20024;-74
2023/03/17 06:11:25;;;;;;;6.28;2.80;;;8.70;77.40;;;;;;5113994;28;20039;-74
2023/03/17 06:13:51;;;;;;;5.45;3.03;;;8.70;77.80;;;;;;5112969;28;20024;-75
2023/03/17 06:16:17;;;;;;;5.90;3.33;;;8.60;78.60;;;;;;5113897;28;20083;-75
2023/03/17 06:18:44;;;;;;;6.30;2.95;;;8.60;78.20;;;;;;5113124;28;20043;-75
2023/03/17 06:21:10;;;;;;;6.82;3.13;;;8.60;78.20;;;;;;5113775;28;20017;-75
2023/03/17 06:23:36;;;;;;;6.88;2.78;;;8.60;78.30;;;;;;5112788;28;20016;-75
2023/03/17 06:26:02;;;;;;;7.82;2.80;;;8.60;78.40;;;;;;5095814;28;20070;-75
2023/03/17 06:28:28;;;;;;;4.82;2.80;;;8.60;78.60;;;;;;5113706;28;20031;-75
2023/03/17 06:30:53;;;;;;;4.82;2.60;;;8.60;78.40;;;;;;5113678;28;20034;-74
2023/03/17 06:33:19;;;;;;;6.90;3.20;;;8.60;78.40;;;;;;5113839;28;20083;-74
2023/03/17 06:35:44;;;;;;;6.93;2.78;;;8.60;78.50;;;;;;5112640;28;20035;-74
2023/03/17 06:38:10;;;;;;;5.40;3.08;;;8.60;78.70;;;;;;5113638;28;20058;-74
2023/03/17 06:40:36;;;;;;;5.43;2.92;;;8.60;79.10;;;;;;5095710;28;20032;-75
2023/03/17 06:43:02;;;;;;;4.90;2.47;;;8.60;79.20;;;;;;5112778;28;20088;-74
2023/03/17 06:45:28;;;;;;;5.30;2.97;;;8.60;78.80;;;;;;5113439;28;20031;-74
2023/03/17 06:47:54;;;;;;;5.72;2.75;;;8.70;78.90;;;;;;5113597;28;20053;-74
2023/03/17 06:50:20;;;;;;;4.95;2.67;;;8.70;78.90;;;;;;5113511;28;20024;-74
2023/03/17 06:52:46;;;;;;;5.68;2.72;;;8.70;78.50;;;;;;5112349;28;20040;-75
2023/03/17 06:55:11;;;;;;;7.30;2.58;;;8.70;79.10;;;;;;5113519;28;20025;-75
2023/03/17 06:57:37;;;;;;;7.88;3.33;;;8.80;79.00;;;;;;5113402;28;20028;-74
2023/03/17 07:00:07;;;;;;;5.88;2.90;;;8.80;79.20;;;;;;5113323;28;20467;-74
2023/03/17 07:02:33;;;;;;;7.03;3.08;;;8.80;78.60;;;;;;5113596;28;20102;-75
2023/03/17 07:05:00;;;;;;;5.38;2.70;;;8.80;78.70;;;;;;5113358;28;20028;-75
2023/03/17 07:07:26;;;;;;;5.18;2.85;;;8.90;78.70;;;;;;5114451;28;20020;-75
2023/03/17 07:09:52;;;;;;;6.95;3.05;;;8.90;78.90;;;;;;5116345;28;20028;-75
2023/03/17 07:12:19;;;;;;;8.27;2.72;;;9.00;78.60;;;;;;5117409;28;20020;-74
2023/03/17 07:14:45;;;;;;;6.28;2.38;;;9.00;78.60;;;;;;5117354;28;20051;-75
2023/03/17 07:17:12;;;;;;;6.10;3.05;;;9.00;78.60;;;;;;5116263;28;20032;-75
2023/03/17 07:19:37;;;;;;;5.70;3.05;;;9.00;79.40;;;;;;5117222;28;20036;-75
2023/03/17 07:22:03;;;;;;;5.38;3.08;;;9.10;79.20;;;;;;5116319;28;20035;-74
2023/03/17 07:24:29;;;;;;;4.85;2.78;;;9.20;78.80;;;;;;5116307;28;20024;-74
2023/03/17 07:26:55;;;;;;;8.02;2.78;;;9.20;78.50;;;;;;5117114;28;20073;-74
2023/03/17 07:29:21;;;;;;;4.70;2.70;;;9.20;78.40;;;;;;5117062;28;20032;-74
2023/03/17 07:31:48;;;;;;;4.53;2.60;;;9.20;78.50;;;;;;5117054;28;20020;-74
2023/03/17 07:34:14;;;;;;;10.82;3.05;;;9.30;78.90;;;;;;5117019;28;20016;-74
2023/03/17 07:36:40;;;;;;;4.95;2.70;;;9.30;78.70;;;;;;5116923;28;20024;-74
2023/03/17 07:39:06;;;;;;;5.97;3.05;;;9.40;78.30;;;;;;5116927;28;20016;-74
2023/03/17 07:41:32;;;;;;;4.25;2.72;;;9.40;78.20;;;;;;5116775;28;20044;-74
2023/03/17 07:43:58;;;;;;;3.88;2.25;;;9.50;78.70;;;;;;5115872;28;20024;-74
2023/03/17 07:46:24;;;;;;;8.65;3.20;;;9.50;78.00;;;;;;5116763;28;20047;-74
2023/03/17 07:48:50;;;;;;;5.38;2.72;;;9.50;78.00;;;;;;5116684;28;20020;-74
2023/03/17 07:51:19;;;;;;;5.38;2.95;;;9.60;78.00;;;;;;5116702;28;20024;-74
2023/03/17 07:53:45;;;;;;;6.15;2.80;;;9.60;78.30;;;;;;5115354;28;20044;-74
2023/03/17 07:56:11;;;;;;;4.95;2.63;;;9.70;77.90;;;;;;5116587;28;20050;-74
2023/03/17 07:58:37;;;;;;;4.47;2.50;;;9.70;77.60;;;;;;5116637;28;20028;-74
2023/03/17 08:01:03;;;;;;;6.38;3.30;;;9.70;77.70;;;;;;5116410;28;20028;-74
2023/03/17 08:03:30;;;;;;;5.45;2.97;;;9.80;77.60;;;;;;5116452;28;20107;-74
2023/03/17 08:05:58;;;;;;;4.93;2.95;;;9.80;78.10;;;;;;5116396;28;20027;-75
2023/03/17 08:08:24;;;;;;;5.35;3.03;;;9.80;77.70;;;;;;5116297;28;20047;-75
2023/03/17 08:10:51;;;;;;;6.28;2.80;;;9.90;77.50;;;;;;5116319;28;20433;-75
2023/03/17 08:13:17;;;;;;;4.63;2.50;;;9.90;77.70;;;;;;5116228;28;20032;-75
2023/03/17 08:15:43;;;;;;;5.15;3.03;;;10.00;78.30;;;;;;5115271;28;20091;-74
2023/03/17 08:18:09;;;;;;;6.45;3.20;;;10.10;77.10;;;;;;5116153;28;20065;-74
2023/03/17 08:20:36;;;;;;;5.13;2.70;;;10.10;77.30;;;;;;5115121;28;20024;-74
2023/03/17 08:23:02;;;;;;;4.18;2.40;;;10.10;76.70;;;;;;5116262;28;20025;-74
2023/03/17 08:25:28;;;;;;;4.85;2.90;;;10.20;77.00;;;;;;5115007;28;20109;-74
2023/03/17 08:27:54;;;;;;;4.57;2.60;;;10.30;76.10;;;;;;5115991;28;20076;-74
2023/03/17 08:30:20;;;;;;;6.10;2.50;;;10.30;75.70;;;;;;5115938;28;20383;-74
2023/03/17 08:32:47;;;;;;;6.35;3.08;;;10.30;76.90;;;;;;5115915;28;20554;-74
2023/03/17 08:35:15;;;;;;;5.10;3.15;;;10.40;75.90;;;;;;5115852;28;20051;-75
2023/03/17 08:37:45;;;;;;;3.78;2.50;;;10.50;75.80;;;;;;5115775;28;20161;-75
2023/03/17 08:40:15;;;;;;;8.23;2.65;;;10.50;75.60;;;;;;5114802;28;20048;-75
2023/03/17 08:42:42;;;;;;;6.90;3.13;;;10.50;75.30;;;;;;5115678;28;20016;-75
2023/03/17 08:45:10;;;;;;;4.70;3.03;;;10.60;75.70;;;;;;5115668;28;20016;-74
2023/03/17 08:47:37;;;;;;;5.90;2.92;;;10.70;74.70;;;;;;5114544;28;20016;-74
2023/03/17 08:50:05;;;;;;;4.32;2.65;;;10.80;74.60;;;;;;5115548;28;20028;-74
2023/03/17 08:52:31;;;;;;;5.00;2.70;;;10.90;75.70;;;;;;5115253;28;20069;-74
2023/03/17 08:54:57;;;;;;;4.50;2.65;;;10.90;75.10;;;;;;5115593;28;20024;-74
2023/03/17 08:57:23;;;;;;;7.60;2.70;;;11.00;75.20;;;;;;5115391;28;20036;-74
2023/03/17 08:59:50;;;;;;;4.40;2.90;;;11.10;75.00;;;;;;5114394;28;20101;-74
2023/03/17 09:02:16;;;;;;;6.15;3.10;;;11.20;73.50;;;;;;5114257;28;20031;-74
2023/03/17 09:04:41;;;;;;;5.15;2.80;;;11.20;73.80;;;;;;5115261;28;20028;-74
2023/03/17 09:07:09;;;;;;;4.75;2.92;;;11.20;73.90;;;;;;5115184;28;20020;-74
2023/03/17 09:09:35;;;;;;;5.53;2.65;;;11.30;73.40;;;;;;5115102;28;20020;-74
2023/03/17 09:12:03;;;;;;;4.32;2.70;;;11.30;73.60;;;;;;5115088;28;20020;-74
2023/03/17 09:14:29;;;;;;;5.68;2.65;;;11.50;73.70;;;;;;5115058;28;20016;-74
2023/03/17 09:16:55;;;;;;;6.40;2.90;;;11.50;74.10;;;;;;5114983;28;20032;-74
2023/03/17 09:19:22;;;;;;;4.13;2.33;;;11.50;74.20;;;;;;5114887;28;20039;-74
2023/03/17 09:21:48;;;;;;;7.18;2.92;;;11.60;74.50;;;;;;5114926;28;20028;-74
2023/03/17 09:24:14;;;;;;;6.75;3.08;;;11.80;74.70;;;;;;5113854;28;20020;-74
2023/03/17 09:26:40;;;;;;;6.90;2.70;;;11.90;75.60;;;;;;5114791;28;20081;-74
2023/03/17 09:29:07;;;;;;;4.55;2.58;;;12.00;73.90;;;;;;5113864;28;20049;-74
2023/03/17 09:31:34;;;;;;;6.15;3.30;;;12.00;73.70;;;;;;5114629;28;20032;-74
2023/03/17 09:34:00;;;;;;;4.85;3.20;;;12.10;74.10;;;;;;5114688;28;20024;-74
2023/03/17 09:36:26;;;;;;;5.03;3.00;;;12.20;74.30;;;;;;5113664;28;20036;-74
2023/03/17 09:38:51;;;;;;;4.88;2.67;;;12.30;73.30;;;;;;5114588;28;20024;-74
2023/03/17 09:41:23;;;;;;;6.93;2.83;;;12.30;73.70;;;;;;5113546;28;20028;-74
2023/03/17 09:43:58;;;;;;;4.95;3.13;;;12.50;72.90;;;;;;5113438;28;20016;-74
2023/03/17 09:46:38;;;;;;;4.85;2.75;;;12.50;73.40;;;;;;5114455;28;20020;-74
2023/03/17 09:49:39;;;;;;;4.65;3.10;;;12.60;74.20;;;;;;5114425;28;20024;-74
2023/03/17 09:52:12;;;;;;;8.38;2.95;;;12.70;74.30;;;;;;5100188;28;20096;-74
2023/03/17 09:54:38;;;;;;;4.20;2.42;;;12.80;72.20;;;;;;5114362;28;20043;-74
2023/03/17 09:57:17;;;;;;;6.93;2.63;;;12.80;71.30;;;;;;5114243;28;20084;-74
2023/03/17 09:59:53;;;;;;;4.60;2.53;;;12.80;70.80;;;;;;5114186;28;20075;-74
2023/03/17 10:02:26;;;;;;;4.85;2.88;;;12.90;72.30;;;;;;5114242;28;20024;-74
2023/03/17 10:04:52;;;;;;;3.47;2.58;;;12.90;72.40;;;;;;5114193;28;20016;-74
2023/03/17 10:07:40;;;;;;;4.05;2.85;;;13.00;72.20;;;;;;5114100;28;20036;-74
2023/03/17 10:10:18;;;;;;;4.82;2.78;;;13.00;71.70;;;;;;5112861;28;20024;-74
2023/03/17 10:12:44;;;;;;;6.10;2.80;;;13.10;71.50;;;;;;5113973;28;20020;-74
2023/03/17 10:15:34;;;;;;;4.97;2.70;;;13.10;71.10;;;;;;5113956;28;20031;-75
2023/03/17 10:18:08;;;;;;;5.18;2.90;;;13.20;72.50;;;;;;5113974;28;20024;-75
2023/03/17 10:20:45;;;;;;;4.57;2.63;;;13.30;71.50;;;;;;5113839;28;20028;-75
2023/03/17 10:23:14;;;;;;;4.63;2.80;;;13.50;72.30;;;;;;5113895;28;20476;-74
2023/03/17 10:25:41;;;;;;;3.92;2.40;;;13.50;71.50;;;;;;5113734;28;20019;-75
2023/03/17 10:28:25;;;;;;;5.00;3.00;;;13.60;70.30;;;;;;5112914;28;20026;-74
2023/03/17 10:30:51;;;;;;;5.00;2.60;;;13.60;70.40;;;;;;5113936;28;20070;-74
2023/03/17 10:33:17;;;;;;;4.22;2.80;;;13.60;71.20;;;;;;5113716;28;20019;-75
2023/03/17 10:35:43;;;;;;;7.35;3.10;;;13.60;71.60;;;;;;5113642;28;20479;-74
2023/03/17 10:38:21;;;;;;;4.90;3.38;;;13.60;70.30;;;;;;5112765;28;20035;-74
2023/03/17 10:40:56;;;;;;;4.68;2.92;;;13.70;71.30;;;;;;5113544;28;20024;-74
2023/03/17 10:43:26;;;;;;;4.50;2.63;;;13.80;71.80;;;;;;5113174;28;20012;-75
2023/03/17 10:46:00;;;;;;;6.45;3.38;;;14.10;70.10;;;;;;5113598;28;20016;-75
2023/03/17 10:48:27;;;;;;;5.20;2.83;;;14.30;68.80;;;;;;5113561;28;20031;-75
2023/03/17 10:50:57;;;;;;;4.70;3.17;;;14.40;68.80;;;;;;5113476;28;20043;-75
2023/03/17 10:53:28;;;;;;;4.15;2.72;;;14.50;69.70;;;;;;5112348;28;20063;-74
2023/03/17 10:56:20;;;;;;;8.43;3.30;;;14.60;68.80;;;;;;5113621;28;20053;-74
2023/03/17 10:58:50;;;;;;;;;;;14.60;67.70;;;;;;5100397;28;20032;-74
2023/03/17 11:01:21;;;;;;;6.10;3.05;;;14.70;67.90;;;;;;5113363;28;19915;-74
2023/03/17 11:03:47;;;;;;;5.63;3.25;;;14.70;69.10;;;;;;5113437;28;20020;-74
2023/03/17 11:06:16;;;;;;;4.03;2.85;;;14.80;68.30;;;;;;5113367;28;20062;-74
2023/03/17 11:08:52;;;;;;;5.53;3.45;;;14.90;69.60;;;;;;5113342;28;20016;-74
2023/03/17 11:11:33;;;;;;;7.38;3.30;;;15.00;69.60;;;;;;5113329;28;20055;-75
2023/03/17 11:14:03;;;;;;;4.63;2.95;;;15.10;68.30;;;;;;5113395;28;20024;-75
2023/03/17 11:16:33;;;;;;;5.68;3.72;;;15.10;67.30;;;;;;5113415;28;20031;-75
2023/03/17 11:19:01;;;;;;;5.90;3.20;;;15.10;68.80;;;;;;5112336;28;20020;-74
2023/03/17 11:21:31;;;;;;;6.65;3.63;;;15.20;67.80;;;;;;5113121;28;20084;-75
2023/03/17 11:24:09;;;;;;;6.88;3.45;;;15.30;68.70;;;;;;5113252;28;20034;-75
2023/03/17 11:26:40;;;;;;;6.90;3.60;;;15.50;69.90;;;;;;5113255;28;20051;-75
2023/03/17 11:29:28;;;;;;;5.25;3.00;;;15.50;68.10;;;;;;5113374;28;20024;-75
2023/03/17 11:32:16;;;;;;;6.05;3.80;;;15.30;65.10;;;;;;5113224;28;20031;-75
2023/03/17 11:35:09;;;;;;;12.13;3.83;;;15.30;66.30;;;;;;5098889;28;20039;-75
2023/03/17 11:38:19;;;;;;;7.43;3.70;;;15.30;64.70;;;;;;5113109;28;20027;-75
2023/03/17 11:41:07;;;;;;;5.97;3.55;;;15.40;65.80;;;;;;5113156;28;20349;-75
2023/03/17 11:44:09;;;;;;;4.80;2.78;;;15.40;67.90;;;;;;5112050;28;20024;-75
2023/03/17 11:47:13;;;;;;;6.80;3.40;;;15.40;64.40;;;;;;5081662;28;20058;-75
2023/03/17 11:49:40;;;;;;;6.55;4.07;;;15.40;67.20;;;;;;5112945;28;20023;-75
2023/03/17 11:52:31;;;;;;;9.02;3.80;;;15.40;65.50;;;;;;5111684;28;20092;-75
2023/03/17 11:55:27;;;;;;;7.07;3.45;;;15.50;67.90;;;;;;5114566;28;20028;-75
2023/03/17 11:58:09;;;;;;;7.00;3.60;;;15.70;67.40;;;;;;5109853;28;20056;-75
2023/03/17 12:00:44;;;;;;;7.13;4.40;;;15.80;67.40;;;;;;5116554;28;20056;-75
2023/03/17 12:03:25;;;;;;;7.28;4.00;;;16.10;66.60;;;;;;5116400;28;20031;-75
2023/03/17 12:05:54;;;;;;;6.78;4.13;;;16.20;65.20;;;;;;5116509;28;20024;-75
2023/03/17 12:08:34;;;;;;;8.80;3.30;;;16.30;63.80;;;;;;5116457;28;20036;-75
2023/03/17 12:11:07;;;;;;;7.65;3.67;;;16.40;66.20;;;;;;5116366;28;20032;-75
2023/03/17 12:13:39;;;;;;;;;;;16.40;64.00;;;;;;5116742;28;20024;-75
2023/03/17 12:16:16;;;;;;;6.75;3.40;;;16.50;65.20;;;;;;5116209;28;19959;-76
2023/03/17 12:18:58;;;;;;;6.65;3.65;;;16.50;63.50;;;;;;5116131;28;20027;-75
2023/03/17 12:22:12;;;;;;;5.45;3.60;;;16.40;61.80;;;;;;5116096;28;20020;-75
2023/03/17 12:24:56;;;;;;;7.32;3.67;;;16.40;61.30;;;;;;5017545;28;20022;-75
2023/03/17 12:27:32;;;;;;;8.02;3.80;;;16.40;64.00;;;;;;5109508;28;20115;-75
2023/03/17 12:30:16;;;;;;;6.35;4.03;;;16.50;65.20;;;;;;5115038;28;20035;-75
2023/03/17 12:32:54;;;;;;;6.75;3.55;;;16.60;64.00;;;;;;5115033;28;20020;-75
2023/03/17 12:35:33;;;;;;;6.03;3.78;;;16.70;62.20;;;;;;5115903;28;20031;-75
2023/03/17 12:38:03;;;;;;;7.72;3.90;;;16.70;62.90;;;;;;5115940;28;20070;-75
2023/03/17 12:40:44;;;;;;;6.20;4.00;;;16.70;62.10;;;;;;5115744;28;20030;-75
2023/03/17 12:43:22;;;;;;;5.53;3.60;;;16.80;63.60;;;;;;5115894;28;20053;-75
2023/03/17 12:46:15;;;;;;;8.60;3.60;;;16.80;63.00;;;;;;5115816;28;20035;-75
2023/03/17 12:49:06;;;;;;;7.03;4.10;;;16.90;64.00;;;;;;5115765;28;20047;-75
2023/03/17 12:51:52;;;;;;;9.73;3.55;;;17.10;63.60;;;;;;5115589;28;20399;-75
2023/03/17 12:54:35;;;;;;;7.40;3.53;;;17.00;61.80;;;;;;5115383;28;20089;-76
2023/03/17 12:57:13;;;;;;;6.97;4.38;;;17.10;63.90;;;;;;5115567;28;20027;-75
2023/03/17 12:59:42;;;;;;;6.80;3.60;;;17.10;63.40;;;;;;5115353;28;20024;-75
2023/03/17 13:02:26;;;;;;;6.93;4.07;;;17.10;63.90;;;;;;5115332;28;20042;-75
2023/03/17 13:04:59;;;;;;;7.47;3.83;;;17.20;63.10;;;;;;5115097;28;20043;-75